sensor_id;sensor_type;location;lat;lon;timestamp;pressure;altitude;pressure_sealevel;temperature;humidity
78800;BME280;68148;55.328;86.106;2023-09-19T00:01:52;100182.50;;;6.99;100.00
78800;BME280;68148;55.328;86.106;2023-09-19T00:04:17;100185.41;;;6.96;100.00
78800;BME280;68148;55.328;86.106;2023-09-19T00:06:43;100188.66;;;6.90;100.00
78800;BME280;68148;55.328;86.106;2023-09-19T00:09:09;100184.38;;;6.89;100.00
78800;BME280;68148;55.328;86.106;2023-09-19T00:11:35;100186.78;;;6.82;100.00
78800;BME280;68148;55.328;86.106;2023-09-19T00:14:01;100195.47;;;6.83;100.00
78800;BME280;68148;55.328;86.106;2023-09-19T00:16:27;100189.63;;;6.89;100.00
78800;BME280;68148;55.328;86.106;2023-09-19T00:18:52;100195.91;;;6.96;100.00
78800;BME280;68148;55.328;86.106;2023-09-19T00:21:18;100198.59;;;7.04;100.00
78800;BME280;68148;55.328;86.106;2023-09-19T00:23:44;100200.13;;;7.07;100.00
78800;BME280;68148;55.328;86.106;2023-09-19T00:26:09;100196.50;;;7.08;100.00
78800;BME280;68148;55.328;86.106;2023-09-19T00:28:35;100199.25;;;7.06;100.00
78800;BME280;68148;55.328;86.106;2023-09-19T00:31:01;100198.16;;;7.09;100.00
78800;BME280;68148;55.328;86.106;2023-09-19T00:33:28;100196.88;;;7.13;100.00
78800;BME280;68148;55.328;86.106;2023-09-19T00:35:54;100200.84;;;7.17;100.00
78800;BME280;68148;55.328;86.106;2023-09-19T00:38:22;100203.66;;;7.23;100.00
78800;BME280;68148;55.328;86.106;2023-09-19T00:40:48;100197.81;;;7.30;100.00
78800;BME280;68148;55.328;86.106;2023-09-19T00:43:14;100199.81;;;7.36;100.00
78800;BME280;68148;55.328;86.106;2023-09-19T00:45:46;100203.78;;;7.40;100.00
78800;BME280;68148;55.328;86.106;2023-09-19T00:48:12;100209.25;;;7.46;100.00
78800;BME280;68148;55.328;86.106;2023-09-19T00:50:41;100209.78;;;7.50;100.00
78800;BME280;68148;55.328;86.106;2023-09-19T00:53:08;100213.56;;;7.56;100.00
78800;BME280;68148;55.328;86.106;2023-09-19T00:55:34;100203.72;;;7.58;100.00
78800;BME280;68148;55.328;86.106;2023-09-19T00:58:08;100212.34;;;7.42;100.00
78800;BME280;68148;55.328;86.106;2023-09-19T01:00:34;100210.88;;;7.47;100.00
78800;BME280;68148;55.328;86.106;2023-09-19T01:03:00;100205.84;;;7.54;100.00
78800;BME280;68148;55.328;86.106;2023-09-19T01:05:26;100213.75;;;7.62;100.00
78800;BME280;68148;55.328;86.106;2023-09-19T01:07:53;100211.69;;;7.74;100.00
78800;BME280;68148;55.328;86.106;2023-09-19T01:10:19;100212.38;;;7.76;100.00
78800;BME280;68148;55.328;86.106;2023-09-19T01:20:39;100205.69;;;8.24;100.00
78800;BME280;68148;55.328;86.106;2023-09-19T01:23:14;100206.22;;;8.36;100.00
78800;BME280;68148;55.328;86.106;2023-09-19T01:28:34;100214.00;;;8.53;100.00
78800;BME280;68148;55.328;86.106;2023-09-19T01:31:02;100215.81;;;8.53;100.00
78800;BME280;68148;55.328;86.106;2023-09-19T01:33:52;100215.66;;;8.55;100.00
78800;BME280;68148;55.328;86.106;2023-09-19T01:36:14;100213.66;;;8.40;100.00
78800;BME280;68148;55.328;86.106;2023-09-19T01:38:40;100206.72;;;8.39;100.00
78800;BME280;68148;55.328;86.106;2023-09-19T01:41:11;100218.09;;;8.40;100.00
78800;BME280;68148;55.328;86.106;2023-09-19T01:43:42;100217.16;;;8.57;100.00
78800;BME280;68148;55.328;86.106;2023-09-19T01:46:09;100217.16;;;8.65;100.00
78800;BME280;68148;55.328;86.106;2023-09-19T01:48:54;100219.78;;;8.73;100.00
78800;BME280;68148;55.328;86.106;2023-09-19T01:51:33;100210.25;;;8.81;100.00
78800;BME280;68148;55.328;86.106;2023-09-19T01:54:09;100214.72;;;8.88;100.00
78800;BME280;68148;55.328;86.106;2023-09-19T01:57:41;100211.59;;;9.01;100.00
78800;BME280;68148;55.328;86.106;2023-09-19T02:00:00;100212.25;;;9.19;100.00
78800;BME280;68148;55.328;86.106;2023-09-19T02:02:28;100207.97;;;9.26;100.00
78800;BME280;68148;55.328;86.106;2023-09-19T02:04:54;100204.50;;;9.34;100.00
78800;BME280;68148;55.328;86.106;2023-09-19T02:07:20;100209.59;;;9.44;100.00
78800;BME280;68148;55.328;86.106;2023-09-19T02:09:46;100208.56;;;9.61;100.00
78800;BME280;68148;55.328;86.106;2023-09-19T02:12:12;100211.50;;;9.74;100.00
78800;BME280;68148;55.328;86.106;2023-09-19T02:14:38;100215.09;;;9.90;100.00
78800;BME280;68148;55.328;86.106;2023-09-19T02:17:04;100213.38;;;9.97;99.88
78800;BME280;68148;55.328;86.106;2023-09-19T02:19:29;100209.34;;;10.17;100.00
78800;BME280;68148;55.328;86.106;2023-09-19T02:21:56;100217.03;;;10.35;99.50
78800;BME280;68148;55.328;86.106;2023-09-19T02:24:22;100215.03;;;10.45;98.20
78800;BME280;68148;55.328;86.106;2023-09-19T02:26:47;100211.44;;;10.61;97.14
78800;BME280;68148;55.328;86.106;2023-09-19T02:29:13;100221.59;;;10.49;97.34
78800;BME280;68148;55.328;86.106;2023-09-19T02:31:39;100218.97;;;10.49;96.93
78800;BME280;68148;55.328;86.106;2023-09-19T02:34:04;100216.84;;;10.45;97.00
78800;BME280;68148;55.328;86.106;2023-09-19T02:36:30;100217.81;;;10.44;97.23
78800;BME280;68148;55.328;86.106;2023-09-19T02:38:56;100217.22;;;10.34;98.09
78800;BME280;68148;55.328;86.106;2023-09-19T02:41:22;100217.81;;;10.44;98.17
78800;BME280;68148;55.328;86.106;2023-09-19T02:43:48;100217.19;;;10.42;97.33
78800;BME280;68148;55.328;86.106;2023-09-19T02:46:14;100221.28;;;10.44;97.45
78800;BME280;68148;55.328;86.106;2023-09-19T02:48:39;100213.50;;;10.51;97.84
78800;BME280;68148;55.328;86.106;2023-09-19T02:51:05;100204.53;;;10.60;97.06
78800;BME280;68148;55.328;86.106;2023-09-19T02:53:31;100212.44;;;10.60;96.74
78800;BME280;68148;55.328;86.106;2023-09-19T02:55:56;100216.38;;;10.64;96.61
78800;BME280;68148;55.328;86.106;2023-09-19T02:58:22;100211.25;;;10.71;96.75
78800;BME280;68148;55.328;86.106;2023-09-19T03:00:48;100221.91;;;10.77;96.42
78800;BME280;68148;55.328;86.106;2023-09-19T03:03:14;100223.91;;;10.75;96.21
78800;BME280;68148;55.328;86.106;2023-09-19T03:05:39;100226.13;;;10.87;96.32
78800;BME280;68148;55.328;86.106;2023-09-19T03:08:05;100215.50;;;10.95;96.29
78800;BME280;68148;55.328;86.106;2023-09-19T03:10:31;100223.72;;;11.00;95.46
78800;BME280;68148;55.328;86.106;2023-09-19T03:12:57;100218.38;;;11.08;94.94
78800;BME280;68148;55.328;86.106;2023-09-19T03:15:23;100228.19;;;11.22;95.39
78800;BME280;68148;55.328;86.106;2023-09-19T03:17:49;100223.94;;;11.36;95.32
78800;BME280;68148;55.328;86.106;2023-09-19T03:20:15;100220.31;;;11.52;95.37
78800;BME280;68148;55.328;86.106;2023-09-19T03:22:41;100219.59;;;11.58;94.35
78800;BME280;68148;55.328;86.106;2023-09-19T03:25:07;100220.94;;;11.69;94.12
78800;BME280;68148;55.328;86.106;2023-09-19T03:27:36;100210.41;;;11.84;94.57
78800;BME280;68148;55.328;86.106;2023-09-19T03:30:02;100210.59;;;11.97;94.29
78800;BME280;68148;55.328;86.106;2023-09-19T03:32:28;100212.38;;;12.11;94.06
78800;BME280;68148;55.328;86.106;2023-09-19T03:34:53;100208.91;;;12.25;94.06
78800;BME280;68148;55.328;86.106;2023-09-19T03:37:19;100204.41;;;12.41;93.86
78800;BME280;68148;55.328;86.106;2023-09-19T03:39:45;100211.66;;;12.53;93.22
78800;BME280;68148;55.328;86.106;2023-09-19T03:42:11;100211.56;;;12.62;91.41
78800;BME280;68148;55.328;86.106;2023-09-19T03:44:37;100209.00;;;12.68;90.58
78800;BME280;68148;55.328;86.106;2023-09-19T03:47:03;100205.94;;;12.71;91.89
78800;BME280;68148;55.328;86.106;2023-09-19T03:49:30;100204.06;;;12.87;92.24
78800;BME280;68148;55.328;86.106;2023-09-19T03:51:55;100197.41;;;12.97;91.25
78800;BME280;68148;55.328;86.106;2023-09-19T03:54:21;100200.78;;;13.06;90.93
78800;BME280;68148;55.328;86.106;2023-09-19T03:56:47;100204.50;;;13.12;90.41
78800;BME280;68148;55.328;86.106;2023-09-19T03:59:13;100196.69;;;13.25;89.76
78800;BME280;68148;55.328;86.106;2023-09-19T04:01:38;100190.00;;;13.36;89.88
78800;BME280;68148;55.328;86.106;2023-09-19T04:04:04;100187.03;;;13.45;89.46
78800;BME280;68148;55.328;86.106;2023-09-19T04:06:30;100189.53;;;13.53;88.52
78800;BME280;68148;55.328;86.106;2023-09-19T04:08:56;100189.19;;;13.63;88.67
78800;BME280;68148;55.328;86.106;2023-09-19T04:11:22;100191.72;;;13.78;88.00
78800;BME280;68148;55.328;86.106;2023-09-19T04:13:47;100191.16;;;13.89;88.31
78800;BME280;68148;55.328;86.106;2023-09-19T04:16:13;100191.44;;;14.01;88.51
78800;BME280;68148;55.328;86.106;2023-09-19T04:18:39;100191.50;;;14.14;88.13
78800;BME280;68148;55.328;86.106;2023-09-19T04:21:06;100185.78;;;14.24;85.33
78800;BME280;68148;55.328;86.106;2023-09-19T04:23:32;100188.69;;;14.36;85.92
78800;BME280;68148;55.328;86.106;2023-09-19T04:25:58;100184.06;;;14.51;84.70
78800;BME280;68148;55.328;86.106;2023-09-19T04:28:24;100181.44;;;14.64;84.17
78800;BME280;68148;55.328;86.106;2023-09-19T04:30:50;100176.38;;;14.83;82.93
78800;BME280;68148;55.328;86.106;2023-09-19T04:33:16;100178.00;;;14.97;82.60
78800;BME280;68148;55.328;86.106;2023-09-19T04:35:41;100180.66;;;15.10;82.78
78800;BME280;68148;55.328;86.106;2023-09-19T04:38:07;100183.31;;;15.17;81.99
78800;BME280;68148;55.328;86.106;2023-09-19T04:40:33;100171.44;;;15.26;79.54
78800;BME280;68148;55.328;86.106;2023-09-19T04:42:59;100174.09;;;15.39;80.09
78800;BME280;68148;55.328;86.106;2023-09-19T04:45:26;100175.72;;;15.47;80.15
78800;BME280;68148;55.328;86.106;2023-09-19T04:47:53;100182.03;;;15.52;80.52
78800;BME280;68148;55.328;86.106;2023-09-19T04:50:19;100172.84;;;15.55;79.28
78800;BME280;68148;55.328;86.106;2023-09-19T04:52:45;100173.63;;;15.62;75.70
78800;BME280;68148;55.328;86.106;2023-09-19T04:55:12;100164.63;;;15.76;75.55
78800;BME280;68148;55.328;86.106;2023-09-19T04:57:38;100162.75;;;15.90;76.47
78800;BME280;68148;55.328;86.106;2023-09-19T05:00:04;100160.41;;;16.07;73.12
78800;BME280;68148;55.328;86.106;2023-09-19T05:02:30;100159.88;;;16.30;71.48
78800;BME280;68148;55.328;86.106;2023-09-19T05:04:55;100157.75;;;16.45;70.23
78800;BME280;68148;55.328;86.106;2023-09-19T05:07:21;100154.78;;;16.60;69.53
78800;BME280;68148;55.328;86.106;2023-09-19T05:09:47;100150.59;;;16.77;67.37
78800;BME280;68148;55.328;86.106;2023-09-19T05:12:12;100155.25;;;16.89;68.21
78800;BME280;68148;55.328;86.106;2023-09-19T05:14:38;100152.06;;;16.98;67.83
78800;BME280;68148;55.328;86.106;2023-09-19T05:17:04;100146.31;;;17.01;65.89
78800;BME280;68148;55.328;86.106;2023-09-19T05:19:30;100131.72;;;17.04;65.62
78800;BME280;68148;55.328;86.106;2023-09-19T05:21:55;100138.03;;;17.10;63.71
78800;BME280;68148;55.328;86.106;2023-09-19T05:24:21;100133.25;;;17.18;63.84
78800;BME280;68148;55.328;86.106;2023-09-19T05:26:47;100127.69;;;17.20;61.98
78800;BME280;68148;55.328;86.106;2023-09-19T05:29:13;100125.53;;;17.28;60.31
78800;BME280;68148;55.328;86.106;2023-09-19T05:31:38;100122.16;;;17.40;63.37
78800;BME280;68148;55.328;86.106;2023-09-19T05:34:04;100134.00;;;17.44;60.41
78800;BME280;68148;55.328;86.106;2023-09-19T05:36:30;100133.72;;;17.52;60.54
78800;BME280;68148;55.328;86.106;2023-09-19T05:38:56;100126.59;;;17.64;61.19
78800;BME280;68148;55.328;86.106;2023-09-19T05:41:23;100120.53;;;17.75;60.73
78800;BME280;68148;55.328;86.106;2023-09-19T05:43:49;100119.19;;;17.85;60.85
78800;BME280;68148;55.328;86.106;2023-09-19T05:46:15;100123.03;;;17.89;61.63
78800;BME280;68148;55.328;86.106;2023-09-19T05:48:41;100118.69;;;17.94;61.16
78800;BME280;68148;55.328;86.106;2023-09-19T05:51:06;100121.75;;;18.10;59.72
78800;BME280;68148;55.328;86.106;2023-09-19T05:53:33;100113.13;;;18.26;58.77
78800;BME280;68148;55.328;86.106;2023-09-19T05:55:59;100115.09;;;18.31;58.75
78800;BME280;68148;55.328;86.106;2023-09-19T05:58:25;100115.13;;;18.42;54.15
78800;BME280;68148;55.328;86.106;2023-09-19T06:00:51;100117.00;;;18.42;54.83
78800;BME280;68148;55.328;86.106;2023-09-19T06:03:16;100120.00;;;18.34;55.52
78800;BME280;68148;55.328;86.106;2023-09-19T06:05:42;100115.94;;;18.43;54.29
78800;BME280;68148;55.328;86.106;2023-09-19T06:08:08;100113.66;;;18.58;52.16
78800;BME280;68148;55.328;86.106;2023-09-19T06:10:34;100107.97;;;18.66;54.13
78800;BME280;68148;55.328;86.106;2023-09-19T06:13:01;100108.97;;;18.72;54.50
78800;BME280;68148;55.328;86.106;2023-09-19T06:15:27;100100.94;;;18.84;51.13
78800;BME280;68148;55.328;86.106;2023-09-19T06:17:54;100097.69;;;18.82;53.30
78800;BME280;68148;55.328;86.106;2023-09-19T06:20:20;100098.41;;;18.89;51.18
78800;BME280;68148;55.328;86.106;2023-09-19T06:22:46;100090.00;;;18.97;50.32
78800;BME280;68148;55.328;86.106;2023-09-19T06:25:13;100094.09;;;18.99;50.87
78800;BME280;68148;55.328;86.106;2023-09-19T06:27:41;100088.88;;;18.93;49.38
78800;BME280;68148;55.328;86.106;2023-09-19T06:30:07;100087.31;;;18.97;51.13
78800;BME280;68148;55.328;86.106;2023-09-19T06:32:33;100083.75;;;19.03;50.29
78800;BME280;68148;55.328;86.106;2023-09-19T06:34:58;100085.00;;;19.12;50.75
78800;BME280;68148;55.328;86.106;2023-09-19T06:37:30;100081.38;;;19.18;50.80
78800;BME280;68148;55.328;86.106;2023-09-19T06:39:55;100079.31;;;19.20;50.05
78800;BME280;68148;55.328;86.106;2023-09-19T06:42:21;100075.94;;;19.25;51.21
78800;BME280;68148;55.328;86.106;2023-09-19T06:44:47;100069.31;;;19.27;51.62
78800;BME280;68148;55.328;86.106;2023-09-19T06:47:13;100067.53;;;19.33;52.16
78800;BME280;68148;55.328;86.106;2023-09-19T06:49:39;100068.91;;;19.47;49.27
78800;BME280;68148;55.328;86.106;2023-09-19T06:52:05;100068.44;;;19.50;48.44
78800;BME280;68148;55.328;86.106;2023-09-19T06:54:31;100063.19;;;19.44;48.17
78800;BME280;68148;55.328;86.106;2023-09-19T06:56:57;100055.75;;;19.46;46.89
78800;BME280;68148;55.328;86.106;2023-09-19T06:59:23;100054.94;;;19.45;47.82
78800;BME280;68148;55.328;86.106;2023-09-19T07:01:48;100051.78;;;19.48;49.60
78800;BME280;68148;55.328;86.106;2023-09-19T07:04:14;100052.13;;;19.52;50.15
78800;BME280;68148;55.328;86.106;2023-09-19T07:06:40;100049.31;;;19.59;48.24
78800;BME280;68148;55.328;86.106;2023-09-19T07:09:06;100042.31;;;19.69;47.84
78800;BME280;68148;55.328;86.106;2023-09-19T07:11:32;100050.22;;;19.76;47.06
78800;BME280;68148;55.328;86.106;2023-09-19T07:13:58;100042.44;;;19.74;48.45
78800;BME280;68148;55.328;86.106;2023-09-19T07:16:23;100041.94;;;19.77;46.65
78800;BME280;68148;55.328;86.106;2023-09-19T07:18:49;100032.97;;;19.84;45.83
78800;BME280;68148;55.328;86.106;2023-09-19T07:21:15;100041.09;;;19.89;45.40
78800;BME280;68148;55.328;86.106;2023-09-19T07:23:41;100037.44;;;19.95;44.35
78800;BME280;68148;55.328;86.106;2023-09-19T07:26:16;100029.13;;;19.80;45.76
78800;BME280;68148;55.328;86.106;2023-09-19T07:28:42;100037.38;;;19.78;46.15
78800;BME280;68148;55.328;86.106;2023-09-19T07:31:08;100030.63;;;19.87;46.16
78800;BME280;68148;55.328;86.106;2023-09-19T07:33:33;100028.50;;;19.89;46.75
78800;BME280;68148;55.328;86.106;2023-09-19T07:35:59;100026.91;;;20.05;45.26
78800;BME280;68148;55.328;86.106;2023-09-19T07:38:25;100019.91;;;20.04;46.33
78800;BME280;68148;55.328;86.106;2023-09-19T07:40:51;100028.06;;;20.09;45.18
78800;BME280;68148;55.328;86.106;2023-09-19T07:43:16;100021.66;;;20.10;45.61
78800;BME280;68148;55.328;86.106;2023-09-19T07:45:42;100015.22;;;20.11;46.37
78800;BME280;68148;55.328;86.106;2023-09-19T07:48:08;100017.03;;;20.22;44.58
78800;BME280;68148;55.328;86.106;2023-09-19T07:50:34;100019.63;;;20.17;45.24
78800;BME280;68148;55.328;86.106;2023-09-19T07:53:00;100011.47;;;20.12;45.89
78800;BME280;68148;55.328;86.106;2023-09-19T07:55:26;100016.38;;;20.15;45.68
78800;BME280;68148;55.328;86.106;2023-09-19T07:57:52;100009.47;;;20.19;44.87
78800;BME280;68148;55.328;86.106;2023-09-19T08:00:18;100005.56;;;20.27;44.16
78800;BME280;68148;55.328;86.106;2023-09-19T08:02:44;100004.53;;;20.28;42.40
78800;BME280;68148;55.328;86.106;2023-09-19T08:05:11;99998.81;;;20.24;43.98
78800;BME280;68148;55.328;86.106;2023-09-19T08:07:38;99999.81;;;20.35;43.29
78800;BME280;68148;55.328;86.106;2023-09-19T08:10:06;100001.34;;;20.31;43.72
78800;BME280;68148;55.328;86.106;2023-09-19T08:12:32;99999.09;;;20.40;43.39
78800;BME280;68148;55.328;86.106;2023-09-19T08:14:58;99999.50;;;20.32;45.03
78800;BME280;68148;55.328;86.106;2023-09-19T08:17:23;99995.75;;;20.33;45.66
78800;BME280;68148;55.328;86.106;2023-09-19T08:19:49;99997.13;;;20.35;42.61
78800;BME280;68148;55.328;86.106;2023-09-19T08:22:15;99989.59;;;20.49;42.37
78800;BME280;68148;55.328;86.106;2023-09-19T08:24:41;99994.13;;;20.32;43.43
78800;BME280;68148;55.328;86.106;2023-09-19T08:27:06;99991.03;;;20.40;44.16
78800;BME280;68148;55.328;86.106;2023-09-19T08:29:32;99984.94;;;20.44;43.23
78800;BME280;68148;55.328;86.106;2023-09-19T08:31:58;99988.84;;;20.54;43.37
78800;BME280;68148;55.328;86.106;2023-09-19T08:34:26;99990.72;;;20.53;42.94
78800;BME280;68148;55.328;86.106;2023-09-19T08:36:53;99979.53;;;20.56;42.18
78800;BME280;68148;55.328;86.106;2023-09-19T08:39:19;99983.88;;;20.45;42.71
78800;BME280;68148;55.328;86.106;2023-09-19T08:41:48;99985.84;;;20.50;42.99
78800;BME280;68148;55.328;86.106;2023-09-19T08:44:14;99978.53;;;20.62;43.01
78800;BME280;68148;55.328;86.106;2023-09-19T08:46:43;99976.50;;;20.69;43.70
78800;BME280;68148;55.328;86.106;2023-09-19T08:49:27;99969.91;;;20.77;42.84
78800;BME280;68148;55.328;86.106;2023-09-19T08:52:08;99976.94;;;20.83;42.30
78800;BME280;68148;55.328;86.106;2023-09-19T08:54:38;99973.13;;;20.79;43.23
78800;BME280;68148;55.328;86.106;2023-09-19T08:57:07;99973.94;;;20.80;42.07
78800;BME280;68148;55.328;86.106;2023-09-19T08:59:33;99968.91;;;20.83;42.05
78800;BME280;68148;55.328;86.106;2023-09-19T09:02:01;99975.56;;;20.81;42.40
78800;BME280;68148;55.328;86.106;2023-09-19T09:04:27;99973.88;;;20.74;43.13
78800;BME280;68148;55.328;86.106;2023-09-19T09:06:53;99969.22;;;20.87;41.65
78800;BME280;68148;55.328;86.106;2023-09-19T09:09:20;99960.59;;;20.85;42.47
78800;BME280;68148;55.328;86.106;2023-09-19T09:11:48;99966.75;;;20.85;42.18
78800;BME280;68148;55.328;86.106;2023-09-19T09:14:14;99979.38;;;20.85;42.07
78800;BME280;68148;55.328;86.106;2023-09-19T09:16:40;99964.97;;;20.91;40.55
78800;BME280;68148;55.328;86.106;2023-09-19T09:19:06;99963.28;;;20.85;42.32
78800;BME280;68148;55.328;86.106;2023-09-19T09:21:33;99972.72;;;20.87;41.81
78800;BME280;68148;55.328;86.106;2023-09-19T09:23:59;99963.47;;;21.00;41.90
78800;BME280;68148;55.328;86.106;2023-09-19T09:26:41;99955.38;;;20.95;39.99
78800;BME280;68148;55.328;86.106;2023-09-19T09:29:07;99960.97;;;20.93;40.77
78800;BME280;68148;55.328;86.106;2023-09-19T09:31:33;99952.44;;;20.96;40.47
78800;BME280;68148;55.328;86.106;2023-09-19T09:33:59;99957.25;;;20.94;41.73
78800;BME280;68148;55.328;86.106;2023-09-19T09:36:36;99952.19;;;20.98;40.75
78800;BME280;68148;55.328;86.106;2023-09-19T09:39:02;99950.56;;;20.97;41.61
78800;BME280;68148;55.328;86.106;2023-09-19T09:41:37;99952.13;;;20.93;40.96
78800;BME280;68148;55.328;86.106;2023-09-19T09:44:15;99944.66;;;20.95;42.17
78800;BME280;68148;55.328;86.106;2023-09-19T09:46:48;99951.94;;;20.99;41.56
78800;BME280;68148;55.328;86.106;2023-09-19T09:49:14;99953.06;;;21.04;41.45
78800;BME280;68148;55.328;86.106;2023-09-19T09:51:41;99946.31;;;21.01;41.63
78800;BME280;68148;55.328;86.106;2023-09-19T09:54:15;99945.94;;;20.92;41.59
78800;BME280;68148;55.328;86.106;2023-09-19T09:56:55;99953.66;;;20.89;40.70
78800;BME280;68148;55.328;86.106;2023-09-19T09:59:21;99949.38;;;20.88;41.60
78800;BME280;68148;55.328;86.106;2023-09-19T10:01:47;99945.88;;;20.87;41.63
78800;BME280;68148;55.328;86.106;2023-09-19T10:04:27;99940.69;;;20.81;40.98
78800;BME280;68148;55.328;86.106;2023-09-19T10:06:53;99944.69;;;20.78;41.19
78800;BME280;68148;55.328;86.106;2023-09-19T10:09:18;99944.88;;;20.71;41.65
78800;BME280;68148;55.328;86.106;2023-09-19T10:11:46;99933.81;;;20.68;41.18
78800;BME280;68148;55.328;86.106;2023-09-19T10:14:15;99937.38;;;20.52;41.80
78800;BME280;68148;55.328;86.106;2023-09-19T10:16:48;99934.09;;;20.49;42.12
78800;BME280;68148;55.328;86.106;2023-09-19T10:19:33;99931.16;;;20.51;41.97
78800;BME280;68148;55.328;86.106;2023-09-19T10:22:02;99933.75;;;20.63;41.13
78800;BME280;68148;55.328;86.106;2023-09-19T10:24:28;99931.66;;;20.65;41.31
78800;BME280;68148;55.328;86.106;2023-09-19T10:26:55;99925.16;;;20.61;41.76
78800;BME280;68148;55.328;86.106;2023-09-19T10:29:21;99926.50;;;20.63;42.07
78800;BME280;68148;55.328;86.106;2023-09-19T10:31:52;99917.34;;;20.59;42.82
78800;BME280;68148;55.328;86.106;2023-09-19T10:34:18;99925.72;;;20.46;43.32
78800;BME280;68148;55.328;86.106;2023-09-19T10:36:46;99925.56;;;20.53;42.72
78800;BME280;68148;55.328;86.106;2023-09-19T10:39:16;99917.75;;;20.51;43.04
78800;BME280;68148;55.328;86.106;2023-09-19T10:41:42;99926.13;;;20.55;42.79
78800;BME280;68148;55.328;86.106;2023-09-19T10:44:08;99917.28;;;20.54;42.47
78800;BME280;68148;55.328;86.106;2023-09-19T10:46:34;99921.50;;;20.50;42.92
78800;BME280;68148;55.328;86.106;2023-09-19T10:49:00;99917.75;;;20.51;42.71
78800;BME280;68148;55.328;86.106;2023-09-19T10:51:30;99916.59;;;20.47;42.65
78800;BME280;68148;55.328;86.106;2023-09-19T10:54:02;99916.72;;;20.35;42.25
78800;BME280;68148;55.328;86.106;2023-09-19T10:56:34;99911.44;;;20.23;42.76
78800;BME280;68148;55.328;86.106;2023-09-19T11:01:52;99909.19;;;20.15;43.30
78800;BME280;68148;55.328;86.106;2023-09-19T11:04:29;99907.09;;;20.17;43.46
78800;BME280;68148;55.328;86.106;2023-09-19T11:07:08;99902.47;;;20.13;43.78
78800;BME280;68148;55.328;86.106;2023-09-19T11:12:57;99892.72;;;20.07;43.18
78800;BME280;68148;55.328;86.106;2023-09-19T11:14:58;99895.25;;;19.96;43.54
78800;BME280;68148;55.328;86.106;2023-09-19T11:17:31;99894.84;;;19.88;44.05
78800;BME280;68148;55.328;86.106;2023-09-19T11:30:42;99889.88;;;19.51;44.78
78800;BME280;68148;55.328;86.106;2023-09-19T11:33:18;99893.53;;;19.45;45.15
78800;BME280;68148;55.328;86.106;2023-09-19T11:36:01;99884.28;;;19.36;45.80
78800;BME280;68148;55.328;86.106;2023-09-19T11:43:46;99889.47;;;19.14;46.64
78800;BME280;68148;55.328;86.106;2023-09-19T11:46:12;99882.41;;;19.08;46.50
78800;BME280;68148;55.328;86.106;2023-09-19T11:48:38;99896.75;;;19.01;46.88
78800;BME280;68148;55.328;86.106;2023-09-19T11:51:19;99901.84;;;19.03;46.63
78800;BME280;68148;55.328;86.106;2023-09-19T11:53:46;99896.63;;;18.96;46.94
78800;BME280;68148;55.328;86.106;2023-09-19T11:56:12;99896.19;;;18.88;47.27
78800;BME280;68148;55.328;86.106;2023-09-19T11:58:40;99898.66;;;18.77;47.68
78800;BME280;68148;55.328;86.106;2023-09-19T12:01:06;99896.34;;;18.69;47.70
78800;BME280;68148;55.328;86.106;2023-09-19T12:03:32;99895.63;;;18.62;48.33
78800;BME280;68148;55.328;86.106;2023-09-19T12:06:01;99903.53;;;18.57;48.49
78800;BME280;68148;55.328;86.106;2023-09-19T12:08:36;99893.31;;;18.54;48.58
78800;BME280;68148;55.328;86.106;2023-09-19T12:11:01;99897.53;;;18.50;48.96
78800;BME280;68148;55.328;86.106;2023-09-19T12:13:27;99905.41;;;18.45;48.95
78800;BME280;68148;55.328;86.106;2023-09-19T12:15:53;99913.78;;;18.37;49.23
78800;BME280;68148;55.328;86.106;2023-09-19T12:18:29;99914.72;;;18.31;49.39
78800;BME280;68148;55.328;86.106;2023-09-19T12:20:55;99910.16;;;18.19;49.91
78800;BME280;68148;55.328;86.106;2023-09-19T12:23:22;99917.72;;;18.11;50.42
78800;BME280;68148;55.328;86.106;2023-09-19T12:25:48;99913.75;;;18.01;50.62
78800;BME280;68148;55.328;86.106;2023-09-19T12:28:14;99912.03;;;17.95;51.02
78800;BME280;68148;55.328;86.106;2023-09-19T12:30:40;99921.19;;;17.88;51.15
78800;BME280;68148;55.328;86.106;2023-09-19T12:33:15;99928.72;;;17.79;51.92
78800;BME280;68148;55.328;86.106;2023-09-19T12:35:41;99924.47;;;17.71;51.77
78800;BME280;68148;55.328;86.106;2023-09-19T12:38:09;99929.09;;;17.64;52.29
78800;BME280;68148;55.328;86.106;2023-09-19T12:40:36;99928.59;;;17.56;52.50
78800;BME280;68148;55.328;86.106;2023-09-19T12:43:02;99930.78;;;17.47;53.11
78800;BME280;68148;55.328;86.106;2023-09-19T12:45:40;99928.66;;;17.37;53.10
78800;BME280;68148;55.328;86.106;2023-09-19T12:48:24;99931.88;;;17.27;54.41
78800;BME280;68148;55.328;86.106;2023-09-19T12:51:22;99937.94;;;17.16;54.48
78800;BME280;68148;55.328;86.106;2023-09-19T12:53:57;99937.66;;;17.06;54.46
78800;BME280;68148;55.328;86.106;2023-09-19T12:56:23;99939.00;;;16.97;54.72
78800;BME280;68148;55.328;86.106;2023-09-19T12:58:53;99937.31;;;16.84;55.06
78800;BME280;68148;55.328;86.106;2023-09-19T13:01:20;99948.09;;;16.71;56.20
78800;BME280;68148;55.328;86.106;2023-09-19T13:06:38;99950.75;;;16.27;59.62
78800;BME280;68148;55.328;86.106;2023-09-19T13:09:11;99950.91;;;16.08;63.67
78800;BME280;68148;55.328;86.106;2023-09-19T13:11:39;99946.34;;;15.90;62.83
78800;BME280;68148;55.328;86.106;2023-09-19T13:14:22;99945.22;;;15.72;69.20
78800;BME280;68148;55.328;86.106;2023-09-19T13:16:58;99943.63;;;15.58;66.36
78800;BME280;68148;55.328;86.106;2023-09-19T13:19:45;99947.41;;;15.44;70.01
78800;BME280;68148;55.328;86.106;2023-09-19T13:23:02;99939.91;;;15.34;68.73